createdAt,value
2022-11-17T00:00:09.615Z,6.90
2022-11-17T00:02:36.963Z,6.80
2022-11-17T00:05:03.756Z,7.00
2022-11-17T00:07:31.245Z,6.80
2022-11-17T00:09:58.290Z,6.80
2022-11-17T00:12:43.581Z,6.80
2022-11-17T00:15:10.737Z,6.70
2022-11-17T00:17:37.925Z,6.70
2022-11-17T00:20:25.605Z,6.80
2022-11-17T00:22:52.117Z,6.70
2022-11-17T00:25:19.096Z,6.70
2022-11-17T00:27:46.086Z,6.70
2022-11-17T00:30:33.150Z,6.80
2022-11-17T00:33:24.705Z,6.70
2022-11-17T00:35:55.536Z,6.70
2022-11-17T00:38:22.086Z,6.70
2022-11-17T00:40:49.054Z,6.70
2022-11-17T00:43:15.630Z,6.70
2022-11-17T00:45:42.650Z,6.70
2022-11-17T00:48:09.172Z,6.70
2022-11-17T00:50:36.180Z,6.70
2022-11-17T00:53:03.199Z,6.80
2022-11-17T00:55:30.340Z,6.70
2022-11-17T00:57:57.442Z,6.70
2022-11-17T01:00:23.973Z,6.70
2022-11-17T01:02:50.949Z,6.70
2022-11-17T01:05:17.925Z,6.70
2022-11-17T01:07:44.500Z,6.70
2022-11-17T01:10:11.515Z,6.70
2022-11-17T01:12:38.570Z,6.70
2022-11-17T01:15:05.482Z,6.60
2022-11-17T01:17:32.497Z,6.50
2022-11-17T01:19:59.481Z,6.50
2022-11-17T01:22:25.998Z,6.50
2022-11-17T01:24:53.028Z,6.50
2022-11-17T01:27:19.562Z,6.50
2022-11-17T01:29:46.617Z,6.50
2022-11-17T01:32:13.652Z,6.50
2022-11-17T01:34:40.674Z,6.40
2022-11-17T01:37:19.171Z,6.40
2022-11-17T01:39:46.992Z,6.50
2022-11-17T01:42:25.877Z,6.40
2022-11-17T01:45:05.458Z,6.50
2022-11-17T01:47:31.943Z,6.50
2022-11-17T01:50:07.986Z,6.50
2022-11-17T01:52:38.804Z,6.50
2022-11-17T01:55:08.954Z,6.50
2022-11-17T01:57:43.812Z,6.40
2022-11-17T02:00:11.580Z,6.40
2022-11-17T02:02:40.330Z,6.40
2022-11-17T02:05:22.482Z,6.40
2022-11-17T02:07:52.509Z,6.40
2022-11-17T02:10:19.162Z,6.40
2022-11-17T02:12:46.002Z,6.40
2022-11-17T02:15:13.169Z,6.40
2022-11-17T02:17:42.773Z,6.40
2022-11-17T02:20:21.605Z,6.40
2022-11-17T02:23:16.985Z,6.30
2022-11-17T02:26:22.326Z,6.30
2022-11-17T02:29:05.536Z,6.30
2022-11-17T02:32:02.913Z,6.30
2022-11-17T02:34:45.348Z,6.30
2022-11-17T02:37:32.794Z,6.30
2022-11-17T02:40:23.134Z,6.30
2022-11-17T02:43:20.124Z,6.30
2022-11-17T02:46:16.673Z,6.30
2022-11-17T02:48:57.770Z,6.40
2022-11-17T02:51:25.565Z,6.50
2022-11-17T02:53:56.757Z,6.50
2022-11-17T02:56:23.741Z,6.50
2022-11-17T02:58:54.371Z,6.50
2022-11-17T03:01:42.326Z,6.40
2022-11-17T03:04:43.058Z,6.30
2022-11-17T03:07:48.691Z,6.30
2022-11-17T03:10:22.791Z,6.30
2022-11-17T03:13:14.225Z,6.30
2022-11-17T03:16:08.272Z,6.30
2022-11-17T03:18:47.838Z,6.20
2022-11-17T03:21:40.102Z,6.20
2022-11-17T03:24:24.120Z,6.40
2022-11-17T03:26:55.909Z,6.60
2022-11-17T03:29:28.766Z,6.60
2022-11-17T03:32:00.717Z,6.60
2022-11-17T03:34:30.299Z,6.60
2022-11-17T03:37:02.975Z,6.60
2022-11-17T03:39:38.264Z,6.50
2022-11-17T03:42:12.446Z,6.50
2022-11-17T03:44:41.282Z,6.50
2022-11-17T03:47:10.003Z,6.60
2022-11-17T03:50:01.500Z,6.50
2022-11-17T03:52:30.035Z,6.40
2022-11-17T03:54:57.430Z,6.40
2022-11-17T03:57:42.244Z,6.40
2022-11-17T04:00:11.661Z,6.30
2022-11-17T04:02:45.041Z,6.20
2022-11-17T04:05:13.770Z,6.20
2022-11-17T04:07:49.942Z,6.30
2022-11-17T04:10:22.732Z,6.20
2022-11-17T04:13:08.685Z,6.10
2022-11-17T04:15:54.630Z,6.10
2022-11-17T04:18:22.150Z,5.90
2022-11-17T04:20:54.357Z,6.00
2022-11-17T04:23:22.140Z,6.00
2022-11-17T04:26:11.621Z,6.00
2022-11-17T04:28:50.541Z,6.10
2022-11-17T04:31:25.265Z,6.10
2022-11-17T04:34:00.650Z,6.00
2022-11-17T04:36:30.270Z,6.10
2022-11-17T04:38:59.304Z,6.10
2022-11-17T04:41:46.897Z,6.10
2022-11-17T04:44:16.036Z,6.10
2022-11-17T04:46:46.418Z,6.00
2022-11-17T04:49:14.417Z,6.00
2022-11-17T04:51:41.916Z,6.00
2022-11-17T04:54:11.054Z,6.00
2022-11-17T04:56:38.566Z,6.00
2022-11-17T04:59:06.680Z,6.00
2022-11-17T05:01:33.445Z,6.00
2022-11-17T05:04:09.247Z,6.00
2022-11-17T05:06:38.184Z,6.00
2022-11-17T05:09:11.399Z,6.00
2022-11-17T05:11:57.097Z,6.00
2022-11-17T05:14:28.227Z,6.10
2022-11-17T05:17:12.020Z,6.10
2022-11-17T05:19:47.051Z,6.00
2022-11-17T05:22:41.608Z,6.00
2022-11-17T05:25:09.363Z,6.00
2022-11-17T05:27:36.467Z,6.10
2022-11-17T05:30:06.564Z,6.10
2022-11-17T05:32:33.153Z,6.30
2022-11-17T05:35:00.288Z,6.20
2022-11-17T05:37:27.368Z,6.20
2022-11-17T05:39:54.448Z,6.20
2022-11-17T05:42:21.071Z,6.10
2022-11-17T05:44:48.855Z,6.00
2022-11-17T05:47:15.961Z,6.00
2022-11-17T05:49:42.526Z,6.10
2022-11-17T05:52:09.402Z,6.20
2022-11-17T05:54:36.434Z,6.20
2022-11-17T05:57:12.689Z,6.30
2022-11-17T05:59:46.092Z,6.20
2022-11-17T06:02:19.167Z,6.10
2022-11-17T06:04:48.447Z,6.30
2022-11-17T06:07:16.209Z,6.30
2022-11-17T06:09:42.821Z,6.20
2022-11-17T06:12:12.356Z,6.10
2022-11-17T06:14:40.128Z,6.10
2022-11-17T06:17:32.868Z,6.10
2022-11-17T06:20:22.156Z,6.10
2022-11-17T06:22:50.037Z,6.20
2022-11-17T06:25:19.735Z,6.10
2022-11-17T06:27:48.700Z,6.10
2022-11-17T06:30:15.504Z,6.10
2022-11-17T06:32:44.214Z,6.00
2022-11-17T06:35:13.250Z,6.00
2022-11-17T06:37:40.664Z,5.90
2022-11-17T06:40:07.984Z,5.90
2022-11-17T06:42:52.929Z,5.90
2022-11-17T06:45:19.902Z,5.90
2022-11-17T06:47:46.430Z,5.90
2022-11-17T06:50:13.393Z,6.10
2022-11-17T06:52:40.419Z,6.20
2022-11-17T06:55:07.677Z,6.10
2022-11-17T06:57:34.682Z,6.00
2022-11-17T07:00:01.262Z,6.00
2022-11-17T07:02:28.328Z,6.00
2022-11-17T07:04:55.296Z,6.10
2022-11-17T07:07:22.366Z,6.00
2022-11-17T07:09:48.995Z,6.00
2022-11-17T07:12:16.147Z,5.90
2022-11-17T07:14:43.193Z,5.90
2022-11-17T07:17:09.762Z,6.00
2022-11-17T07:19:36.297Z,6.00
2022-11-17T07:22:03.770Z,6.10
2022-11-17T07:24:30.360Z,6.20
2022-11-17T07:26:57.348Z,6.20
2022-11-17T07:29:23.990Z,6.40
2022-11-17T07:31:50.987Z,6.50
2022-11-17T07:34:17.594Z,6.30
2022-11-17T07:36:44.568Z,6.10
2022-11-17T07:39:11.096Z,6.20
2022-11-17T07:41:38.107Z,6.30
2022-11-17T07:44:04.738Z,6.30
2022-11-17T07:46:31.729Z,6.30
2022-11-17T07:48:58.793Z,6.30
2022-11-17T07:51:25.611Z,6.30
2022-11-17T07:53:52.674Z,6.30
2022-11-17T07:56:19.225Z,6.30
2022-11-17T07:58:46.251Z,6.40
2022-11-17T08:01:17.350Z,6.30
2022-11-17T08:03:44.513Z,6.20
2022-11-17T08:06:11.243Z,6.40
2022-11-17T08:08:38.777Z,6.30
2022-11-17T08:11:08.048Z,6.40
2022-11-17T08:13:35.599Z,6.50
2022-11-17T08:16:02.427Z,6.50
2022-11-17T08:18:29.627Z,6.40
2022-11-17T08:21:11.434Z,6.40
2022-11-17T08:23:39.002Z,6.60
2022-11-17T08:26:07.794Z,6.70
2022-11-17T08:28:35.487Z,6.80
2022-11-17T08:31:06.725Z,6.70
2022-11-17T08:33:34.357Z,6.70
2022-11-17T08:36:02.253Z,6.70
2022-11-17T08:38:30.080Z,6.60
2022-11-17T08:41:08.188Z,6.60
2022-11-17T08:43:35.239Z,6.70
2022-11-17T08:46:03.002Z,6.70
2022-11-17T08:48:31.409Z,6.60
2022-11-17T08:50:58.322Z,6.60
2022-11-17T08:53:24.858Z,6.60
2022-11-17T08:55:51.942Z,6.40
2022-11-17T08:58:19.183Z,6.50
2022-11-17T09:00:47.203Z,6.50
2022-11-17T09:03:14.337Z,6.60
2022-11-17T09:05:44.248Z,6.60
2022-11-17T09:08:43.243Z,6.50
2022-11-17T09:10:58.282Z,6.50
2022-11-17T09:13:24.889Z,6.70
2022-11-17T09:15:51.958Z,6.70
2022-11-17T09:18:18.510Z,6.70
2022-11-17T09:20:46.164Z,6.70
2022-11-17T09:23:13.406Z,6.60
2022-11-17T09:25:40.014Z,6.70
2022-11-17T09:28:07.162Z,6.70
2022-11-17T09:30:33.725Z,6.70
2022-11-17T09:33:00.345Z,6.70
2022-11-17T09:35:27.352Z,6.90
2022-11-17T09:37:59.068Z,7.10
2022-11-17T09:40:25.627Z,7.10
2022-11-17T09:42:52.669Z,7.10
2022-11-17T09:45:34.444Z,7.20
2022-11-17T09:48:39.379Z,7.10
2022-11-17T09:50:59.778Z,7.30
2022-11-17T09:53:54.572Z,7.20
2022-11-17T09:56:21.839Z,7.10
2022-11-17T09:58:56.612Z,7.10
2022-11-17T10:01:23.392Z,7.00
2022-11-17T10:03:51.487Z,7.00
2022-11-17T10:06:23.467Z,7.00
2022-11-17T10:08:58.250Z,7.10
2022-11-17T10:11:33.048Z,7.10
2022-11-17T10:14:09.028Z,7.20
2022-11-17T10:16:36.339Z,7.20
2022-11-17T10:19:11.862Z,7.50
2022-11-17T10:21:38.398Z,7.90
2022-11-17T10:24:05.078Z,8.10
2022-11-17T10:26:43.917Z,8.10
2022-11-17T10:29:13.936Z,8.10
2022-11-17T10:31:41.977Z,8.10
2022-11-17T10:34:09.330Z,8.10
2022-11-17T10:36:35.816Z,8.10
2022-11-17T10:39:02.401Z,8.10
2022-11-17T10:41:43.178Z,8.10
2022-11-17T10:44:12.756Z,8.10
2022-11-17T10:47:02.312Z,8.00
2022-11-17T10:49:33.700Z,8.00
2022-11-17T10:52:13.722Z,7.90
2022-11-17T10:54:40.661Z,7.90
2022-11-17T10:57:17.726Z,7.80
2022-11-17T10:59:45.809Z,7.80
2022-11-17T11:02:27.734Z,7.80
2022-11-17T11:05:13.826Z,7.70
2022-11-17T11:07:41.126Z,7.70
2022-11-17T11:10:26.805Z,7.70
2022-11-17T11:12:57.174Z,7.70
2022-11-17T11:15:24.834Z,7.60
2022-11-17T11:17:51.364Z,7.60
2022-11-17T11:20:20.217Z,7.60
2022-11-17T11:22:56.384Z,7.70
2022-11-17T11:25:32.029Z,7.70
2022-11-17T11:28:05.118Z,7.80
2022-11-17T11:30:34.316Z,7.80
2022-11-17T11:33:07.043Z,7.80
2022-11-17T11:35:33.955Z,7.80
2022-11-17T11:38:00.663Z,7.80
2022-11-17T11:40:29.512Z,7.80
2022-11-17T11:42:58.178Z,7.90
2022-11-17T11:45:25.236Z,7.80
2022-11-17T11:48:01.609Z,7.80
2022-11-17T11:50:30.102Z,7.80
2022-11-17T11:53:00.977Z,7.80
2022-11-17T11:55:31.923Z,7.80
2022-11-17T11:57:58.826Z,7.70
2022-11-17T12:00:25.379Z,7.80
2022-11-17T12:03:10.775Z,7.80
2022-11-17T12:05:46.524Z,7.80
2022-11-17T12:08:15.992Z,7.80
2022-11-17T12:10:49.624Z,7.80
2022-11-17T12:13:18.516Z,7.80
2022-11-17T12:15:45.072Z,7.80
2022-11-17T12:18:30.002Z,7.80
2022-11-17T12:21:04.714Z,7.90
2022-11-17T12:23:49.757Z,7.90
2022-11-17T12:26:21.086Z,7.80
2022-11-17T12:28:47.591Z,7.70
2022-11-17T12:31:32.922Z,7.70
2022-11-17T12:33:59.397Z,7.70
2022-11-17T12:36:30.493Z,7.60
2022-11-17T12:38:59.255Z,7.60
2022-11-17T12:41:44.691Z,7.70
2022-11-17T12:44:30.142Z,7.60
2022-11-17T12:47:09.734Z,7.60
2022-11-17T12:49:52.271Z,7.60
2022-11-17T12:52:43.755Z,7.70
2022-11-17T12:55:41.961Z,7.70
2022-11-17T12:58:26.257Z,7.70
2022-11-17T13:01:31.492Z,7.70
2022-11-17T13:04:23.206Z,7.70
2022-11-17T13:07:05.178Z,7.60
2022-11-17T13:09:34.313Z,7.60
2022-11-17T13:12:06.946Z,7.60
2022-11-17T13:14:34.945Z,7.60
2022-11-17T13:17:02.612Z,7.60
2022-11-17T13:19:33.976Z,7.60
2022-11-17T13:22:06.664Z,7.60
2022-11-17T13:24:36.101Z,7.50
2022-11-17T13:27:07.269Z,7.50
2022-11-17T13:29:34.520Z,7.40
2022-11-17T13:32:24.040Z,7.40
2022-11-17T13:34:57.042Z,7.40
2022-11-17T13:37:29.042Z,7.40
2022-11-17T13:40:20.762Z,7.40
2022-11-17T13:42:48.649Z,7.40
2022-11-17T13:45:16.124Z,7.50
2022-11-17T13:47:46.364Z,7.50
2022-11-17T13:50:29.283Z,7.60
2022-11-17T13:53:26.167Z,7.60
2022-11-17T13:55:53.388Z,7.60
2022-11-17T13:58:41.316Z,7.50
2022-11-17T14:01:11.877Z,7.50
2022-11-17T14:03:40.746Z,7.50
2022-11-17T14:06:12.468Z,7.50
2022-11-17T14:08:42.388Z,7.60
2022-11-17T14:11:11.720Z,7.50
2022-11-17T14:13:51.480Z,7.50
2022-11-17T14:16:38.455Z,7.50
2022-11-17T14:19:34.714Z,7.40
2022-11-17T14:22:14.312Z,7.40
2022-11-17T14:24:45.159Z,7.40
2022-11-17T14:27:37.646Z,7.40
2022-11-17T14:30:05.471Z,7.40
2022-11-17T14:32:32.302Z,7.40
2022-11-17T14:34:58.861Z,7.40
2022-11-17T14:37:28.125Z,7.40
2022-11-17T14:39:54.703Z,7.40
2022-11-17T14:42:21.680Z,7.30
2022-11-17T14:44:48.241Z,7.30
2022-11-17T14:47:15.211Z,7.30
2022-11-17T14:52:10.216Z,7.30
2022-11-17T14:54:36.742Z,7.20
2022-11-17T14:59:50.674Z,7.30
2022-11-17T15:02:17.661Z,7.30
2022-11-17T15:04:50.364Z,7.30
2022-11-17T15:07:18.471Z,7.30
2022-11-17T15:09:45.035Z,7.30
2022-11-17T15:12:11.584Z,7.30
2022-11-17T15:14:38.533Z,7.20
2022-11-17T15:17:05.995Z,7.30
2022-11-17T15:19:36.343Z,7.20
2022-11-17T15:22:03.006Z,7.20
2022-11-17T15:24:29.544Z,7.20
2022-11-17T15:26:56.182Z,7.20
2022-11-17T15:29:23.656Z,7.20
2022-11-17T15:31:50.361Z,7.20
2022-11-17T15:34:20.228Z,7.30
2022-11-17T15:36:48.311Z,7.40
2022-11-17T15:39:15.876Z,7.40
2022-11-17T15:41:43.106Z,7.40
2022-11-17T15:44:10.168Z,7.40
2022-11-17T15:46:36.720Z,7.40
2022-11-17T15:49:03.960Z,7.40
2022-11-17T15:51:30.945Z,7.40
2022-11-17T15:53:59.453Z,7.40
2022-11-17T15:56:28.145Z,7.40
2022-11-17T15:59:03.523Z,7.40
2022-11-17T16:01:31.230Z,7.40
2022-11-17T16:04:00.858Z,7.40
2022-11-17T16:06:29.147Z,7.40
2022-11-17T16:08:55.818Z,7.40
2022-11-17T16:11:22.711Z,7.30
2022-11-17T16:13:53.194Z,7.30
2022-11-17T16:16:19.866Z,7.20
2022-11-17T16:18:46.400Z,7.20
2022-11-17T16:21:14.910Z,7.20
2022-11-17T16:23:42.582Z,7.30
2022-11-17T16:26:10.622Z,7.30
2022-11-17T16:28:38.508Z,7.30
2022-11-17T16:31:23.075Z,7.40
2022-11-17T16:34:01.124Z,7.30
2022-11-17T16:36:34.590Z,7.30
2022-11-17T16:39:03.553Z,7.30
2022-11-17T16:41:39.305Z,7.30
2022-11-17T16:44:14.236Z,7.30
2022-11-17T16:46:46.305Z,7.30
2022-11-17T16:49:15.853Z,7.30
2022-11-17T16:51:50.632Z,7.30
2022-11-17T16:54:18.422Z,7.30
2022-11-17T16:56:45.621Z,7.30
2022-11-17T16:59:12.579Z,7.30
2022-11-17T17:01:39.597Z,7.40
2022-11-17T17:04:08.658Z,7.40
2022-11-17T17:06:37.237Z,7.40
2022-11-17T17:09:06.886Z,7.40
2022-11-17T17:11:36.390Z,7.30
2022-11-17T17:14:05.969Z,7.30
2022-11-17T17:16:35.568Z,7.30
2022-11-17T17:19:04.249Z,7.30
2022-11-17T17:21:32.491Z,7.30
2022-11-17T17:23:59.630Z,7.20
2022-11-17T17:26:29.153Z,7.30
2022-11-17T17:28:58.176Z,7.20
2022-11-17T17:31:28.808Z,7.20
2022-11-17T17:33:55.978Z,7.10
2022-11-17T17:36:24.526Z,7.10
2022-11-17T17:38:56.037Z,7.10
2022-11-17T17:41:29.538Z,7.10
2022-11-17T17:43:57.544Z,7.10
2022-11-17T17:46:24.939Z,7.00
2022-11-17T17:48:52.058Z,7.00
2022-11-17T17:51:20.595Z,7.00
2022-11-17T17:53:49.909Z,7.00
2022-11-17T17:56:18.687Z,6.90
2022-11-17T17:58:47.162Z,6.90
2022-11-17T18:01:20.033Z,6.90
2022-11-17T18:03:48.320Z,6.90
2022-11-17T18:06:17.675Z,6.80
2022-11-17T18:08:45.345Z,6.90
2022-11-17T18:11:17.199Z,6.90
2022-11-17T18:13:47.871Z,6.80
2022-11-17T18:16:16.930Z,6.80
2022-11-17T18:18:45.947Z,6.80
2022-11-17T18:21:15.686Z,6.70
2022-11-17T18:23:43.039Z,6.70
2022-11-17T18:26:18.222Z,6.70
2022-11-17T18:28:50.904Z,6.70
2022-11-17T18:31:17.420Z,6.70
2022-11-17T18:33:47.271Z,6.70
2022-11-17T18:36:13.817Z,6.70
2022-11-17T18:38:40.338Z,6.70
2022-11-17T18:41:15.997Z,6.70
2022-11-17T18:43:43.576Z,6.60
2022-11-17T18:46:21.877Z,6.60
2022-11-17T18:48:51.499Z,6.60
2022-11-17T18:51:21.098Z,6.60
2022-11-17T18:53:52.579Z,6.50
2022-11-17T18:56:21.848Z,6.50
2022-11-17T18:58:49.038Z,6.50
2022-11-17T19:01:18.759Z,6.40
2022-11-17T19:03:48.046Z,6.40
2022-11-17T19:06:16.901Z,6.40
2022-11-17T19:08:44.581Z,6.40
2022-11-17T19:11:12.115Z,6.40
2022-11-17T19:13:40.818Z,6.40
2022-11-17T19:16:22.964Z,6.40
2022-11-17T19:18:51.780Z,6.40
2022-11-17T19:21:26.663Z,6.30
2022-11-17T19:23:55.958Z,6.30
2022-11-17T19:26:25.901Z,6.30
2022-11-17T19:28:57.144Z,6.40
2022-11-17T19:31:24.424Z,6.40
2022-11-17T19:33:51.256Z,6.40
2022-11-17T19:36:20.937Z,6.50
2022-11-17T19:38:52.579Z,6.40
2022-11-17T19:41:21.443Z,6.40
2022-11-17T19:43:48.697Z,6.30
2022-11-17T19:46:17.194Z,6.30
2022-11-17T19:48:44.904Z,6.20
2022-11-17T19:51:19.800Z,6.20
2022-11-17T19:53:54.797Z,6.10
2022-11-17T19:56:22.926Z,6.20
2022-11-17T19:58:50.432Z,6.10
2022-11-17T20:01:22.610Z,6.10
2022-11-17T20:03:50.168Z,6.10
2022-11-17T20:06:19.505Z,6.10
2022-11-17T20:08:47.623Z,6.10
2022-11-17T20:11:17.801Z,6.10
2022-11-17T20:13:45.514Z,6.00
2022-11-17T20:16:14.688Z,6.00
2022-11-17T20:18:42.650Z,5.90
2022-11-17T20:21:10.039Z,6.10
2022-11-17T20:23:38.534Z,5.90
2022-11-17T20:26:06.866Z,5.80
2022-11-17T20:28:38.010Z,6.20
2022-11-17T20:31:10.045Z,5.80
2022-11-17T20:33:41.993Z,5.70
2022-11-17T20:36:11.566Z,5.70
2022-11-17T20:38:38.200Z,5.80
2022-11-17T20:41:05.153Z,5.60
2022-11-17T20:43:32.490Z,5.70
2022-11-17T20:45:59.880Z,5.70
2022-11-17T20:48:28.001Z,5.70
2022-11-17T20:50:59.986Z,5.70
2022-11-17T20:53:27.708Z,5.70
2022-11-17T20:55:58.978Z,5.70
2022-11-17T20:58:26.587Z,5.70
2022-11-17T21:00:53.915Z,5.70
2022-11-17T21:03:21.253Z,5.70
2022-11-17T21:05:59.486Z,5.70
2022-11-17T21:08:29.346Z,5.70
2022-11-17T21:11:01.716Z,5.70
2022-11-17T21:13:30.631Z,5.80
2022-11-17T21:16:10.637Z,5.80
2022-11-17T21:18:42.102Z,5.90
2022-11-17T21:21:09.048Z,6.00
2022-11-17T21:23:37.711Z,6.00
2022-11-17T21:26:09.390Z,6.10
2022-11-17T21:28:37.973Z,6.10
2022-11-17T21:31:10.910Z,6.10
2022-11-17T21:33:37.990Z,6.10
2022-11-17T21:36:16.061Z,6.10
2022-11-17T21:38:44.361Z,6.10
2022-11-17T21:41:22.754Z,6.20
2022-11-17T21:43:50.854Z,6.20
2022-11-17T21:46:23.317Z,6.20
2022-11-17T21:48:52.525Z,6.20
2022-11-17T21:51:24.673Z,6.20
2022-11-17T21:53:58.584Z,6.20
2022-11-17T21:56:26.825Z,6.20
2022-11-17T21:58:57.903Z,6.20
2022-11-17T22:01:25.422Z,6.10
2022-11-17T22:03:52.343Z,6.10
2022-11-17T22:06:22.736Z,6.10
2022-11-17T22:08:50.586Z,6.10
2022-11-17T22:11:38.823Z,6.10
2022-11-17T22:14:18.277Z,6.10
2022-11-17T22:16:49.724Z,6.10
2022-11-17T22:19:17.615Z,6.00
2022-11-17T22:21:45.682Z,6.10
2022-11-17T22:24:13.218Z,6.00
2022-11-17T22:26:42.052Z,6.00
2022-11-17T22:29:15.183Z,6.00
2022-11-17T22:31:42.887Z,5.90
2022-11-17T22:34:09.519Z,5.90
2022-11-17T22:36:36.447Z,5.90
2022-11-17T22:39:04.070Z,5.90
2022-11-17T22:41:31.609Z,5.80
2022-11-17T22:43:58.202Z,5.80
2022-11-17T22:46:27.357Z,5.90
2022-11-17T22:48:54.249Z,5.90
2022-11-17T22:51:40.289Z,5.90
2022-11-17T22:54:07.906Z,5.90
2022-11-17T22:56:35.426Z,5.80
2022-11-17T22:59:02.463Z,5.90
2022-11-17T23:01:29.482Z,5.90
2022-11-17T23:03:56.017Z,5.90
2022-11-17T23:06:24.004Z,5.90
2022-11-17T23:08:51.064Z,5.90
2022-11-17T23:14:08.299Z,5.90
2022-11-17T23:16:35.836Z,5.90
2022-11-17T23:19:02.854Z,5.90
2022-11-17T23:21:29.532Z,5.90
2022-11-17T23:23:56.600Z,5.90
2022-11-17T23:26:23.517Z,5.90
2022-11-17T23:28:50.559Z,6.00
2022-11-17T23:31:18.180Z,6.00
2022-11-17T23:33:47.242Z,6.00
2022-11-17T23:36:17.541Z,6.00
2022-11-17T23:38:44.941Z,6.00
2022-11-17T23:41:14.402Z,6.00
2022-11-17T23:43:41.618Z,6.10
2022-11-17T23:46:13.838Z,6.10
2022-11-17T23:48:41.148Z,6.10
2022-11-17T23:51:23.501Z,6.10
2022-11-17T23:53:50.663Z,6.10
2022-11-17T23:56:19.074Z,6.00
2022-11-17T23:58:45.645Z,6.00
